Time;durP1;ratioP1;P1;durP2;ratioP2;P2;SDS_P1;SDS_P2;PMS_P1;PMS_P2;Temp;Humidity;BMP_temperature;BMP_pressure;BME280_temperature;BME280_humidity;BME280_pressure;Samples;Min_cycle;Max_cycle;Signal;HPM_P1;HPM_P2
2021/06/09 00:00:09;;;;;;;17.65;15.43;;;16.30;90.50;;;;;;5092483;28;20089;-67
2021/06/09 00:02:35;;;;;;;;;;;16.20;90.60;;;;;;5087672;28;20032;-65
2021/06/09 00:05:00;;;;;;;20.30;15.27;;;16.20;90.40;;;;;;5094005;28;19917;-65
2021/06/09 00:07:26;;;;;;;17.08;14.75;;;16.20;90.50;;;;;;5079824;28;20119;-65
2021/06/09 00:09:51;;;;;;;16.92;14.85;;;16.10;90.60;;;;;;5073549;28;20454;-67
2021/06/09 00:12:17;;;;;;;15.88;14.02;;;16.10;90.80;;;;;;5088748;28;20064;-67
2021/06/09 00:14:43;;;;;;;16.10;14.38;;;16.10;90.90;;;;;;5089215;28;20115;-67
2021/06/09 00:17:08;;;;;;;17.83;14.55;;;16.00;90.90;;;;;;5085316;28;20036;-67
2021/06/09 00:19:34;;;;;;;17.48;15.60;;;16.00;91.10;;;;;;5081264;28;20024;-67
2021/06/09 00:22:00;;;;;;;17.20;15.43;;;16.00;91.20;;;;;;5076601;28;20116;-67
2021/06/09 00:24:25;;;;;;;20.50;16.48;;;16.00;91.30;;;;;;5085004;28;20020;-67
2021/06/09 00:26:52;;;;;;;19.45;17.48;;;15.90;91.30;;;;;;5071137;28;20143;-67
2021/06/09 00:29:20;;;;;;;20.85;18.23;;;15.90;91.40;;;;;;5084672;28;20032;-67
2021/06/09 00:31:45;;;;;;;23.20;19.02;;;15.90;91.50;;;;;;5078578;28;20055;-67
2021/06/09 00:34:11;;;;;;;20.85;16.63;;;15.90;91.50;;;;;;5084607;28;20024;-67
2021/06/09 00:36:37;;;;;;;18.88;16.90;;;15.90;91.60;;;;;;5085177;28;20033;-67
2021/06/09 00:39:04;;;;;;;19.92;17.17;;;15.90;91.60;;;;;;5084902;28;20028;-67
2021/06/09 00:41:30;;;;;;;16.48;14.77;;;15.80;91.70;;;;;;5084206;28;20505;-67
2021/06/09 00:43:57;;;;;;;22.27;16.45;;;15.80;92.00;;;;;;5084180;28;20051;-67
2021/06/09 00:46:22;;;;;;;17.45;15.60;;;15.70;91.70;;;;;;5069812;28;20039;-67
2021/06/09 00:48:48;;;;;;;19.52;15.52;;;15.70;91.80;;;;;;5082287;28;20450;-67
2021/06/09 00:51:18;;;;;;;17.98;16.00;;;15.70;91.80;;;;;;5082094;28;20494;-67
2021/06/09 00:53:53;;;;;;;20.50;17.83;;;15.60;91.90;;;;;;5071722;28;20127;-67
2021/06/09 00:56:21;;;;;;;17.88;15.98;;;15.60;91.90;;;;;;5085757;28;20417;-67
2021/06/09 00:58:48;;;;;;;20.67;16.98;;;15.60;92.00;;;;;;5082699;28;20458;-68
2021/06/09 01:01:17;;;;;;;19.58;16.85;;;15.60;92.00;;;;;;5083003;28;20036;-65
2021/06/09 01:03:43;;;;;;;19.80;17.73;;;15.60;92.10;;;;;;5081218;28;20024;-65
2021/06/09 01:06:08;;;;;;;21.35;18.95;;;15.50;92.20;;;;;;5085829;28;20044;-65
2021/06/09 01:08:38;;;;;;;23.55;18.52;;;15.50;92.20;;;;;;5084989;28;20043;-67
2021/06/09 01:11:06;;;;;;;21.00;18.52;;;15.50;92.30;;;;;;5090945;28;20032;-67
2021/06/09 01:13:32;;;;;;;25.52;20.80;;;15.40;92.20;;;;;;5081426;28;20028;-67
2021/06/09 01:15:59;;;;;;;24.50;21.10;;;15.40;92.30;;;;;;5087225;28;20390;-65
2021/06/09 01:18:25;;;;;;;23.63;21.13;;;15.40;92.30;;;;;;5087152;28;20474;-65
2021/06/09 01:20:52;;;;;;;24.17;21.42;;;15.30;92.40;;;;;;5085416;28;20051;-67
2021/06/09 01:23:18;;;;;;;31.48;25.13;;;15.40;92.50;;;;;;5082069;28;20028;-67
2021/06/09 01:25:44;;;;;;;25.90;21.88;;;15.30;92.60;;;;;;5085925;28;20043;-67
2021/06/09 01:28:10;;;;;;;22.33;19.63;;;15.30;92.60;;;;;;5088585;28;20031;-67
2021/06/09 01:30:36;;;;;;;23.75;20.88;;;15.30;92.60;;;;;;5085988;28;20413;-65
2021/06/09 01:33:04;;;;;;;22.95;20.45;;;15.30;92.60;;;;;;5083802;28;20036;-65
2021/06/09 01:35:34;;;;;;;25.45;21.52;;;15.20;92.60;;;;;;5083176;28;20024;-67
2021/06/09 01:38:00;;;;;;;29.38;23.48;;;15.20;92.70;;;;;;5082109;28;20033;-65
2021/06/09 01:40:27;;;;;;;25.30;22.60;;;15.20;92.70;;;;;;5086210;28;20034;-65
2021/06/09 01:42:54;;;;;;;25.80;22.35;;;15.10;92.80;;;;;;5082198;28;20038;-67
2021/06/09 01:45:22;;;;;;;26.42;23.60;;;15.10;92.90;;;;;;5086204;28;20028;-67
2021/06/09 01:47:49;;;;;;;27.75;24.25;;;15.10;93.00;;;;;;5083006;28;20027;-67
2021/06/09 01:50:16;;;;;;;29.85;23.75;;;15.00;93.00;;;;;;5085741;28;20028;-65
2021/06/09 01:52:42;;;;;;;30.63;25.48;;;15.00;93.00;;;;;;5077628;28;20127;-65
2021/06/09 01:55:10;;;;;;;24.52;21.80;;;15.00;93.10;;;;;;5085290;28;20020;-67
2021/06/09 01:57:36;;;;;;;25.38;21.30;;;15.00;93.00;;;;;;5084560;28;20385;-67
2021/06/09 02:00:10;;;;;;;25.63;21.98;;;14.90;93.10;;;;;;5081488;28;20107;-67
2021/06/09 02:02:36;;;;;;;27.30;24.25;;;14.90;93.10;;;;;;5082868;28;20030;-65
2021/06/09 02:05:04;;;;;;;22.92;20.45;;;14.90;93.10;;;;;;5083071;28;20032;-65
2021/06/09 02:07:38;;;;;;;29.65;23.67;;;14.80;93.20;;;;;;5087046;28;20502;-67
2021/06/09 02:10:16;;;;;;;32.88;25.00;;;14.80;93.30;;;;;;5087115;28;20379;-67
2021/06/09 02:12:50;;;;;;;29.80;25.17;;;14.80;93.30;;;;;;5083129;28;20081;-67
2021/06/09 02:15:18;;;;;;;28.17;23.58;;;14.80;93.40;;;;;;5081805;28;20107;-67
2021/06/09 02:20:58;;;;;;;29.45;23.95;;;14.80;93.50;;;;;;5085175;28;20048;-67
2021/06/09 02:23:27;;;;;;;28.83;24.88;;;14.80;93.40;;;;;;5085877;28;20807;-65
2021/06/09 02:25:57;;;;;;;28.17;23.70;;;14.80;93.60;;;;;;5087275;28;20069;-67
2021/06/09 02:28:24;;;;;;;31.23;24.95;;;14.80;93.60;;;;;;5087419;28;20029;-65
2021/06/09 02:30:50;;;;;;;30.40;25.25;;;14.80;93.70;;;;;;5085775;28;20039;-66
2021/06/09 02:33:19;;;;;;;29.30;23.80;;;14.80;93.70;;;;;;5087133;28;20021;-67
2021/06/09 02:35:45;;;;;;;27.25;23.30;;;14.80;93.70;;;;;;5090678;28;20028;-67
2021/06/09 02:38:12;;;;;;;27.23;24.08;;;14.80;93.70;;;;;;5091624;28;20038;-67
2021/06/09 02:40:39;;;;;;;31.13;24.83;;;14.80;93.60;;;;;;5081928;28;20043;-67
2021/06/09 02:43:06;;;;;;;29.48;25.08;;;14.80;93.70;;;;;;5082864;28;20462;-67
2021/06/09 02:45:32;;;;;;;28.27;24.58;;;14.80;93.70;;;;;;5085749;28;20107;-67
2021/06/09 02:48:05;;;;;;;30.27;25.45;;;14.70;93.70;;;;;;5089727;28;20016;-67
2021/06/09 02:50:31;;;;;;;28.60;23.85;;;14.80;93.80;;;;;;5069004;28;20017;-67
2021/06/09 02:53:14;;;;;;;26.30;22.83;;;14.70;93.80;;;;;;5090412;28;20039;-66
2021/06/09 02:55:49;;;;;;;25.95;21.73;;;14.70;93.90;;;;;;5085171;28;20036;-66
2021/06/09 02:58:37;;;;;;;24.77;20.90;;;14.70;93.80;;;;;;5087851;28;20024;-66
2021/06/09 03:01:19;;;;;;;24.73;21.02;;;14.60;93.80;;;;;;5083545;28;20514;-67
2021/06/09 03:03:55;;;;;;;25.40;22.50;;;14.50;93.80;;;;;;5084410;28;20028;-67
2021/06/09 03:06:27;;;;;;;32.15;23.60;;;14.50;93.80;;;;;;5089321;28;20313;-67
2021/06/09 03:09:06;;;;;;;24.98;21.13;;;14.50;93.90;;;;;;5089143;28;20020;-66
2021/06/09 03:12:09;;;;;;;30.63;24.50;;;14.40;93.90;;;;;;5069708;28;20047;-67
2021/06/09 03:17:30;;;;;;;24.73;21.23;;;14.30;93.80;;;;;;5087699;28;20569;-67
2021/06/09 03:20:07;;;;;;;29.27;23.98;;;14.30;93.90;;;;;;5086592;28;20024;-66
2021/06/09 03:22:46;;;;;;;30.38;25.48;;;14.30;94.00;;;;;;5090565;28;20346;-67
2021/06/09 03:25:19;;;;;;;28.67;25.27;;;14.30;94.10;;;;;;5085773;28;20063;-67
2021/06/09 03:27:53;;;;;;;31.90;25.30;;;14.30;94.20;;;;;;5088059;28;20091;-67
2021/06/09 03:30:22;;;;;;;30.88;26.27;;;14.30;94.20;;;;;;5084830;28;20259;-67
2021/06/09 03:32:58;;;;;;;36.78;30.08;;;14.20;94.30;;;;;;5087206;28;20025;-67
2021/06/09 03:35:31;;;;;;;37.75;29.08;;;14.20;94.30;;;;;;5067252;28;20024;-66
2021/06/09 03:37:59;;;;;;;34.45;27.42;;;14.30;94.40;;;;;;5086167;28;20020;-67
2021/06/09 03:40:38;;;;;;;35.78;29.15;;;14.30;94.40;;;;;;5078481;28;20055;-67
2021/06/09 03:43:07;;;;;;;38.58;31.13;;;14.30;94.40;;;;;;5070983;28;20020;-66
2021/06/09 03:45:44;;;;;;;33.97;27.65;;;14.20;94.50;;;;;;5089973;28;20335;-67
2021/06/09 03:48:11;;;;;;;29.40;25.08;;;14.30;94.60;;;;;;5088126;28;20036;-67
2021/06/09 03:50:41;;;;;;;33.88;26.67;;;14.30;94.60;;;;;;5084362;28;20012;-67
2021/06/09 03:53:06;;;;;;;32.97;26.58;;;14.30;94.60;;;;;;5088648;28;20059;-67
2021/06/09 03:55:36;;;;;;;34.08;27.50;;;14.30;94.60;;;;;;5070216;28;20060;-67
2021/06/09 03:58:04;;;;;;;26.13;22.98;;;14.30;94.60;;;;;;5088352;28;20028;-66
2021/06/09 04:00:30;;;;;;;35.05;28.05;;;14.30;94.60;;;;;;5086780;28;20028;-67
2021/06/09 04:02:57;;;;;;;34.40;27.38;;;14.30;94.60;;;;;;5086445;28;20032;-67
2021/06/09 04:05:26;;;;;;;30.83;25.45;;;14.40;94.70;;;;;;5087286;28;20046;-67
2021/06/09 04:07:52;;;;;;;31.90;27.23;;;14.40;94.60;;;;;;5079957;28;20485;-67
2021/06/09 04:10:19;;;;;;;36.25;28.88;;;14.40;94.60;;;;;;5086075;28;20024;-67
2021/06/09 04:12:45;;;;;;;35.55;28.35;;;14.50;94.70;;;;;;5082696;28;20080;-66
2021/06/09 04:15:12;;;;;;;31.48;27.67;;;14.50;94.60;;;;;;5088815;28;20670;-67
2021/06/09 04:17:39;;;;;;;30.40;23.85;;;14.60;94.70;;;;;;5084813;28;20481;-67
2021/06/09 04:20:06;;;;;;;28.98;24.60;;;14.60;94.60;;;;;;5084278;28;20028;-67
2021/06/09 04:22:32;;;;;;;28.33;24.52;;;14.60;94.50;;;;;;5086502;28;20036;-67
2021/06/09 04:24:59;;;;;;;30.05;24.27;;;14.70;94.50;;;;;;5085583;28;20524;-67
2021/06/09 04:27:28;;;;;;;29.75;26.08;;;14.70;94.50;;;;;;5081821;28;20028;-67
2021/06/09 04:29:56;;;;;;;31.63;26.90;;;14.80;94.50;;;;;;5085552;28;20354;-67
2021/06/09 04:32:22;;;;;;;31.60;26.63;;;14.80;94.40;;;;;;5090761;28;20031;-67
2021/06/09 04:34:50;;;;;;;33.40;27.98;;;14.90;94.40;;;;;;5082877;28;20016;-67
2021/06/09 04:37:19;;;;;;;38.45;31.15;;;15.00;94.40;;;;;;5082952;28;20504;-67
2021/06/09 04:39:45;;;;;;;36.28;30.05;;;15.00;94.40;;;;;;5085851;28;20031;-67
2021/06/09 04:42:11;;;;;;;37.05;31.15;;;15.10;94.40;;;;;;5066076;28;20028;-67
2021/06/09 04:44:41;;;;;;;36.58;30.90;;;15.30;94.40;;;;;;5078972;28;20525;-67
2021/06/09 04:47:07;;;;;;;34.40;29.25;;;15.30;94.40;;;;;;5086058;28;20031;-67
2021/06/09 04:49:35;;;;;;;32.80;28.23;;;15.40;94.30;;;;;;5078677;28;20024;-67
2021/06/09 04:52:02;;;;;;;35.35;30.92;;;15.50;94.40;;;;;;5087951;28;20031;-67
2021/06/09 04:54:28;;;;;;;35.65;28.98;;;15.80;94.60;;;;;;5079221;28;20090;-67
2021/06/09 04:56:54;;;;;;;33.63;29.77;;;16.10;94.70;;;;;;5086457;28;20481;-67
2021/06/09 04:59:20;;;;;;;25.65;22.88;;;16.50;95.00;;;;;;5084526;28;20421;-67
2021/06/09 05:01:46;;;;;;;28.70;23.73;;;16.90;94.50;;;;;;5083537;28;20025;-67
2021/06/09 05:04:12;;;;;;;24.83;21.63;;;17.20;94.30;;;;;;5080446;28;20085;-67
2021/06/09 05:06:37;;;;;;;23.90;21.33;;;17.60;94.10;;;;;;5083425;28;20090;-65
2021/06/09 05:09:05;;;;;;;25.67;22.85;;;18.00;93.60;;;;;;5085032;28;20024;-65
2021/06/09 05:11:56;;;;;;;24.58;21.92;;;18.40;93.00;;;;;;5069482;28;20103;-65
2021/06/09 05:14:28;;;;;;;26.73;23.83;;;18.90;92.40;;;;;;5073241;28;20036;-68
2021/06/09 05:16:55;;;;;;;24.48;22.08;;;19.20;92.00;;;;;;5084524;28;20024;-67
2021/06/09 05:19:23;;;;;;;27.05;24.25;;;19.50;91.50;;;;;;5085125;28;20529;-67
2021/06/09 05:21:52;;;;;;;27.00;24.20;;;19.90;90.90;;;;;;5083887;28;20035;-67
2021/06/09 05:24:21;;;;;;;25.70;23.15;;;20.20;90.30;;;;;;5082382;28;20066;-67
2021/06/09 05:26:48;;;;;;;27.13;24.33;;;20.50;89.30;;;;;;5087128;28;20036;-67
2021/06/09 05:29:16;;;;;;;25.23;22.73;;;20.70;88.10;;;;;;5083290;28;20496;-67
2021/06/09 05:31:45;;;;;;;27.27;24.23;;;20.90;86.90;;;;;;5085028;28;20020;-67
2021/06/09 05:34:12;;;;;;;25.77;23.08;;;21.10;86.10;;;;;;5079774;28;20054;-67
2021/06/09 05:36:38;;;;;;;27.92;25.13;;;21.30;85.60;;;;;;5088317;28;20035;-67
2021/06/09 05:39:04;;;;;;;26.98;24.20;;;21.30;84.40;;;;;;5084772;28;20105;-67
2021/06/09 05:41:30;;;;;;;27.27;24.17;;;21.40;84.20;;;;;;5077561;28;20470;-67
2021/06/09 05:44:03;;;;;;;24.35;21.65;;;21.40;83.80;;;;;;5066522;28;20043;-68
2021/06/09 05:46:29;;;;;;;26.42;23.85;;;21.50;83.30;;;;;;5083356;28;20036;-68
2021/06/09 05:48:55;;;;;;;25.83;22.63;;;21.50;82.70;;;;;;5086325;28;20043;-67
2021/06/09 05:51:23;;;;;;;28.75;25.73;;;21.60;82.30;;;;;;5085811;28;20466;-67
2021/06/09 05:53:55;;;;;;;28.58;24.92;;;21.70;81.30;;;;;;5084638;28;20044;-67
2021/06/09 05:56:21;;;;;;;33.60;29.42;;;21.80;80.30;;;;;;5067215;28;20087;-67
2021/06/09 05:58:46;;;;;;;32.25;27.70;;;21.80;80.00;;;;;;5086110;28;20067;-67
2021/06/09 06:01:12;;;;;;;32.00;28.70;;;21.80;79.90;;;;;;5083011;28;20085;-67
2021/06/09 06:03:40;;;;;;;32.67;29.00;;;21.80;79.90;;;;;;5073740;28;20101;-66
2021/06/09 06:06:11;;;;;;;32.40;28.88;;;21.80;79.80;;;;;;5086425;28;20035;-66
2021/06/09 06:08:40;;;;;;;39.17;27.70;;;21.90;79.60;;;;;;5090951;28;20087;-68
2021/06/09 06:11:07;;;;;;;30.50;27.33;;;21.80;79.70;;;;;;5082900;28;20062;-66
2021/06/09 06:13:37;;;;;;;31.60;28.23;;;21.90;79.50;;;;;;5082820;28;20073;-67
2021/06/09 06:16:04;;;;;;;34.67;31.20;;;22.00;79.10;;;;;;5084814;28;20511;-67
2021/06/09 06:18:40;;;;;;;36.03;32.00;;;22.10;78.20;;;;;;5085104;28;20086;-67
2021/06/09 06:21:09;;;;;;;35.35;31.65;;;22.20;77.80;;;;;;5086607;28;20027;-68
2021/06/09 06:23:35;;;;;;;38.28;33.35;;;22.30;77.50;;;;;;5085469;28;20103;-66
2021/06/09 06:26:01;;;;;;;38.83;34.83;;;22.30;77.10;;;;;;5089177;28;20387;-66
2021/06/09 06:28:27;;;;;;;40.33;36.05;;;22.40;77.20;;;;;;5073580;28;20099;-66
2021/06/09 06:30:53;;;;;;;40.22;34.97;;;22.40;76.90;;;;;;5096176;28;20233;-66
2021/06/09 06:33:24;;;;;;;38.13;34.05;;;22.40;76.80;;;;;;5095440;28;20039;-66
2021/06/09 06:35:50;;;;;;;36.17;32.55;;;22.40;76.40;;;;;;5082094;28;20477;-66
2021/06/09 06:38:16;;;;;;;35.28;30.60;;;22.40;76.60;;;;;;5088246;28;20036;-66
2021/06/09 06:40:42;;;;;;;36.40;32.65;;;22.30;76.40;;;;;;5096235;28;20051;-67
2021/06/09 06:43:09;;;;;;;37.10;33.22;;;22.40;76.80;;;;;;5092703;28;20409;-66
2021/06/09 06:45:35;;;;;;;37.88;33.78;;;22.40;76.90;;;;;;5083735;28;20047;-66
2021/06/09 06:48:02;;;;;;;35.55;31.83;;;22.50;76.90;;;;;;5090839;28;20012;-66
2021/06/09 06:50:28;;;;;;;36.28;32.47;;;22.60;76.60;;;;;;5093891;28;20059;-66
2021/06/09 06:52:54;;;;;;;34.30;30.75;;;22.70;76.30;;;;;;5091832;28;20071;-67
2021/06/09 06:55:22;;;;;;;36.10;32.33;;;22.90;76.00;;;;;;5094448;28;20024;-66
2021/06/09 06:57:51;;;;;;;33.78;30.25;;;22.90;75.70;;;;;;5089257;28;20374;-66
2021/06/09 07:00:19;;;;;;;35.88;32.22;;;22.90;75.60;;;;;;5083647;28;20386;-66
2021/06/09 07:02:53;;;;;;;34.05;30.45;;;23.10;75.00;;;;;;5092222;28;20066;-66
2021/06/09 07:05:20;;;;;;;32.88;29.50;;;23.10;74.50;;;;;;5086946;28;20383;-67
2021/06/09 07:07:46;;;;;;;33.30;29.88;;;23.20;74.00;;;;;;5089464;28;20370;-66
2021/06/09 07:10:14;;;;;;;37.33;32.00;;;23.30;73.20;;;;;;5088962;28;20520;-66
2021/06/09 07:12:41;;;;;;;34.00;30.55;;;23.30;72.50;;;;;;5093013;28;20024;-66
2021/06/09 07:15:09;;;;;;;37.00;32.92;;;23.40;72.30;;;;;;5093301;28;20035;-66
2021/06/09 07:17:41;;;;;;;34.42;30.73;;;23.40;72.00;;;;;;5073960;28;20025;-66
2021/06/09 07:20:10;;;;;;;35.42;30.15;;;23.60;72.20;;;;;;5080565;28;20036;-66
2021/06/09 07:22:39;;;;;;;37.50;33.35;;;23.70;71.70;;;;;;5087075;28;20028;-66
2021/06/09 07:25:07;;;;;;;35.85;32.13;;;23.70;71.60;;;;;;5080922;28;20028;-66
2021/06/09 07:27:39;;;;;;;35.78;32.28;;;23.70;72.10;;;;;;5076326;28;20036;-67
2021/06/09 07:30:08;;;;;;;35.20;31.48;;;23.70;72.40;;;;;;5082965;28;20108;-67
2021/06/09 07:32:43;;;;;;;32.40;28.98;;;23.70;72.30;;;;;;5084413;28;20028;-67
2021/06/09 07:35:11;;;;;;;37.72;33.85;;;23.60;72.20;;;;;;5093240;28;20028;-67
2021/06/09 07:37:47;;;;;;;36.55;32.90;;;23.50;72.40;;;;;;5094138;28;20062;-67
2021/06/09 07:40:19;;;;;;;36.55;32.65;;;23.30;72.80;;;;;;5092396;28;20501;-66
2021/06/09 07:42:51;;;;;;;32.75;29.45;;;23.20;73.10;;;;;;5086435;28;20036;-66
2021/06/09 07:45:20;;;;;;;35.20;31.38;;;23.20;72.90;;;;;;5091390;28;20501;-66
2021/06/09 07:47:48;;;;;;;34.25;30.73;;;23.20;72.60;;;;;;5086945;28;20044;-67
2021/06/09 07:50:19;;;;;;;36.00;31.55;;;23.20;72.70;;;;;;5093486;28;20421;-67
2021/06/09 07:52:45;;;;;;;33.73;30.33;;;23.20;72.60;;;;;;5092765;28;20059;-66
2021/06/09 07:55:12;;;;;;;36.72;32.83;;;23.10;72.20;;;;;;5088162;28;20025;-67
2021/06/09 07:57:40;;;;;;;34.03;30.55;;;23.20;71.70;;;;;;5085779;28;20111;-67
2021/06/09 08:00:11;;;;;;;32.03;28.73;;;23.10;71.90;;;;;;5093440;28;20024;-66
2021/06/09 08:02:37;;;;;;;29.83;26.52;;;23.20;71.60;;;;;;5092714;28;20032;-67
2021/06/09 08:05:05;;;;;;;31.77;28.40;;;23.30;71.10;;;;;;5076070;28;20074;-67
2021/06/09 08:07:31;;;;;;;31.17;27.88;;;23.50;70.50;;;;;;5092362;28;20045;-66
2021/06/09 08:09:56;;;;;;;27.83;25.00;;;23.60;69.30;;;;;;5093095;28;20443;-66
2021/06/09 08:12:22;;;;;;;25.60;22.70;;;23.70;69.50;;;;;;5092796;28;20383;-66
2021/06/09 08:14:48;;;;;;;26.83;24.13;;;23.90;69.30;;;;;;5093393;28;20065;-66
2021/06/09 08:17:14;;;;;;;25.20;22.65;;;24.00;68.10;;;;;;5093314;28;20028;-66
2021/06/09 08:19:40;;;;;;;23.83;20.98;;;24.10;68.10;;;;;;5093077;28;20835;-66
2021/06/09 08:22:05;;;;;;;22.13;19.85;;;24.20;67.10;;;;;;5081898;28;20024;-66
2021/06/09 08:24:31;;;;;;;22.52;20.13;;;24.30;66.40;;;;;;5091098;28;20378;-66
2021/06/09 08:27:03;;;;;;;21.08;18.83;;;24.50;65.70;;;;;;5092623;28;20145;-66
2021/06/09 08:29:34;;;;;;;20.80;18.70;;;24.60;64.70;;;;;;5092374;28;20031;-66
2021/06/09 08:32:00;;;;;;;23.13;20.85;;;24.70;64.30;;;;;;5075679;28;20039;-66
2021/06/09 08:34:25;;;;;;;22.25;19.80;;;24.90;63.80;;;;;;5092282;28;20024;-66
2021/06/09 08:36:55;;;;;;;22.05;19.73;;;24.90;63.90;;;;;;5091345;28;20034;-66
2021/06/09 08:39:21;;;;;;;20.88;18.77;;;25.00;64.50;;;;;;5093711;28;20034;-66
2021/06/09 08:41:48;;;;;;;20.17;18.15;;;25.10;63.80;;;;;;5083590;28;20046;-66
2021/06/09 08:44:14;;;;;;;19.90;17.85;;;25.10;62.80;;;;;;5092113;28;20163;-67
2021/06/09 08:46:40;;;;;;;21.30;19.08;;;25.20;62.20;;;;;;5089499;28;20110;-67
2021/06/09 08:49:07;;;;;;;22.67;18.60;;;25.20;62.00;;;;;;5092581;28;20039;-67
2021/06/09 08:51:35;;;;;;;20.10;18.00;;;25.30;62.40;;;;;;5090433;28;20040;-66
2021/06/09 08:54:05;;;;;;;18.83;16.90;;;25.30;61.80;;;;;;5079500;28;20043;-69
2021/06/09 08:56:32;;;;;;;19.23;17.05;;;25.30;61.50;;;;;;5077627;28;20111;-67
2021/06/09 08:58:58;;;;;;;22.08;19.75;;;25.40;61.30;;;;;;5092880;28;20118;-66
2021/06/09 09:01:25;;;;;;;20.70;18.63;;;25.50;60.70;;;;;;5086953;28;20110;-67
2021/06/09 09:03:51;;;;;;;22.17;19.88;;;25.40;60.80;;;;;;5090459;28;20035;-66
2021/06/09 09:06:17;;;;;;;19.80;17.73;;;25.50;61.10;;;;;;5091170;28;20032;-67
2021/06/09 09:08:43;;;;;;;21.75;18.73;;;25.50;61.30;;;;;;5091501;28;20024;-66
2021/06/09 09:11:09;;;;;;;19.75;17.75;;;25.60;61.90;;;;;;5089836;28;20099;-66
2021/06/09 09:13:35;;;;;;;21.20;19.05;;;25.70;60.30;;;;;;5092386;28;20101;-67
2021/06/09 09:16:01;;;;;;;20.35;18.40;;;25.70;59.80;;;;;;5090519;28;20040;-67
2021/06/09 09:19:05;;;;;;;18.42;15.35;;;25.70;59.60;;;;;;5088735;28;20032;-67
2021/06/09 09:21:36;;;;;;;17.15;15.40;;;25.70;61.00;;;;;;5059130;28;20059;-66
2021/06/09 09:24:06;;;;;;;16.42;14.73;;;25.70;59.50;;;;;;5090695;28;20031;-67
2021/06/09 09:26:34;;;;;;;18.58;16.58;;;25.80;59.30;;;;;;5089143;28;20478;-67
2021/06/09 09:29:14;;;;;;;17.48;15.63;;;25.70;58.10;;;;;;5089518;28;20024;-67
2021/06/09 09:31:58;;;;;;;16.83;14.63;;;25.90;58.90;;;;;;5093053;28;20048;-67
2021/06/09 09:34:30;;;;;;;14.80;13.00;;;26.00;58.20;;;;;;5079590;28;20025;-67
2021/06/09 09:37:15;;;;;;;13.82;12.43;;;26.10;57.60;;;;;;5091699;28;20043;-67
2021/06/09 09:39:45;;;;;;;15.40;12.80;;;26.20;57.80;;;;;;5090262;28;20490;-67
2021/06/09 09:42:44;;;;;;;16.63;12.25;;;26.40;56.90;;;;;;5091630;28;20035;-68
2021/06/09 09:45:26;;;;;;;14.88;13.00;;;26.40;56.40;;;;;;5078975;28;20039;-66
2021/06/09 09:48:12;;;;;;;15.57;12.10;;;26.50;55.80;;;;;;5089790;28;20028;-66
2021/06/09 09:50:48;;;;;;;15.43;13.90;;;26.60;56.40;;;;;;5081922;28;20020;-66
2021/06/09 09:53:24;;;;;;;19.42;16.33;;;26.60;55.40;;;;;;5090738;28;20173;-66
2021/06/09 09:56:17;;;;;;;14.45;12.93;;;26.50;55.50;;;;;;5089147;28;20032;-66
2021/06/09 09:59:02;;;;;;;14.93;13.27;;;26.40;55.40;;;;;;5075873;28;20046;-66
2021/06/09 10:01:30;;;;;;;15.43;13.18;;;26.40;55.40;;;;;;5091274;28;20474;-66
2021/06/09 10:03:58;;;;;;;17.33;15.52;;;26.30;56.10;;;;;;5091215;28;20055;-66
2021/06/09 10:06:41;;;;;;;12.13;9.77;;;26.30;55.90;;;;;;5087541;28;20044;-66
2021/06/09 10:09:19;;;;;;;11.48;9.95;;;26.40;55.80;;;;;;5090166;28;20032;-66
2021/06/09 10:12:00;;;;;;;13.07;11.55;;;26.50;55.30;;;;;;5091635;28;20024;-66
2021/06/09 10:14:36;;;;;;;11.35;10.25;;;26.70;54.40;;;;;;5089294;28;20016;-66
2021/06/09 10:17:06;;;;;;;12.90;10.63;;;26.70;54.90;;;;;;5087820;28;20049;-66
2021/06/09 10:19:54;;;;;;;10.20;9.20;;;26.70;54.30;;;;;;5090299;28;20490;-66
2021/06/09 10:22:22;;;;;;;12.18;9.75;;;26.70;54.70;;;;;;5085580;28;20028;-66
2021/06/09 10:24:55;;;;;;;10.20;9.18;;;26.70;53.60;;;;;;5087918;28;20109;-66
2021/06/09 10:27:33;;;;;;;11.20;10.02;;;26.60;53.30;;;;;;5090368;28;20098;-66
2021/06/09 10:29:58;;;;;;;11.70;9.90;;;26.60;53.80;;;;;;5090801;28;20062;-66
2021/06/09 10:32:24;;;;;;;10.18;9.18;;;26.60;54.40;;;;;;5091434;28;20389;-66
2021/06/09 10:34:50;;;;;;;9.93;8.32;;;26.70;53.70;;;;;;5089989;28;20021;-66
2021/06/09 10:37:16;;;;;;;10.88;8.43;;;26.80;53.20;;;;;;5091335;28;20137;-66
2021/06/09 10:39:43;;;;;;;11.35;9.57;;;27.00;52.50;;;;;;5091294;28;20021;-66
2021/06/09 10:42:12;;;;;;;12.52;11.20;;;27.30;52.80;;;;;;5092438;28;20024;-66
2021/06/09 10:44:39;;;;;;;10.63;9.07;;;27.30;52.50;;;;;;5074566;28;20024;-66
2021/06/09 10:47:09;;;;;;;9.38;8.48;;;27.30;52.30;;;;;;5091261;28;20119;-66
2021/06/09 10:49:37;;;;;;;9.45;8.48;;;27.50;52.30;;;;;;5093273;28;20035;-66
2021/06/09 10:52:03;;;;;;;7.13;6.35;;;27.60;52.30;;;;;;5091761;28;20032;-66
2021/06/09 10:54:30;;;;;;;10.52;9.43;;;27.70;51.40;;;;;;5094230;28;20109;-66
2021/06/09 10:56:56;;;;;;;11.25;8.68;;;27.80;51.30;;;;;;5091127;28;20028;-66
2021/06/09 10:59:31;;;;;;;8.98;7.45;;;27.80;50.20;;;;;;5093237;28;20477;-66
2021/06/09 11:02:03;;;;;;;16.17;13.23;;;27.80;50.60;;;;;;5092824;28;20279;-66
2021/06/09 11:04:39;;;;;;;12.65;11.35;;;27.90;50.60;;;;;;5082154;28;20044;-66
2021/06/09 11:07:35;;;;;;;12.52;11.32;;;28.10;50.60;;;;;;5089249;28;20505;-66
2021/06/09 11:10:05;;;;;;;10.45;9.40;;;28.20;50.30;;;;;;5094414;28;20019;-66
2021/06/09 11:12:38;;;;;;;10.98;9.93;;;28.10;50.50;;;;;;5095612;28;20024;-66
2021/06/09 11:15:16;;;;;;;12.60;10.75;;;27.90;50.50;;;;;;5093203;28;20070;-66
2021/06/09 11:17:48;;;;;;;11.88;10.57;;;28.00;50.40;;;;;;5084522;28;20428;-66
2021/06/09 11:20:23;;;;;;;9.65;8.68;;;28.10;49.00;;;;;;5075536;28;20029;-66
2021/06/09 11:22:54;;;;;;;7.90;7.15;;;28.10;49.60;;;;;;5074867;28;20044;-66
2021/06/09 11:25:33;;;;;;;11.27;8.87;;;28.00;49.50;;;;;;5084371;28;20405;-66
2021/06/09 11:28:00;;;;;;;8.82;7.65;;;28.10;48.80;;;;;;5090017;28;20332;-67
2021/06/09 11:30:25;;;;;;;9.23;7.55;;;28.10;49.30;;;;;;5077687;28;20022;-67
2021/06/09 11:32:52;;;;;;;7.90;7.15;;;28.10;48.90;;;;;;5095226;28;20103;-67
2021/06/09 11:35:23;;;;;;;10.55;7.95;;;28.10;49.50;;;;;;5094202;28;20032;-67
2021/06/09 11:38:13;;;;;;;9.25;7.60;;;28.10;48.60;;;;;;5094320;28;20046;-67
2021/06/09 11:40:59;;;;;;;11.23;8.02;;;28.00;48.00;;;;;;5094060;28;20363;-67
2021/06/09 11:43:37;;;;;;;10.00;7.78;;;28.10;47.90;;;;;;5095188;28;20049;-67
2021/06/09 11:46:07;;;;;;;8.23;7.43;;;28.20;47.50;;;;;;5092113;28;20043;-67
2021/06/09 11:48:34;;;;;;;6.85;6.00;;;28.10;46.70;;;;;;5084935;28;20020;-67
2021/06/09 11:51:15;;;;;;;6.00;5.38;;;28.10;47.50;;;;;;5087650;28;20171;-67
2021/06/09 11:53:43;;;;;;;7.50;5.47;;;28.20;48.00;;;;;;5089753;28;20035;-67
2021/06/09 11:56:29;;;;;;;9.52;7.18;;;28.30;48.20;;;;;;5092698;28;20028;-67
2021/06/09 11:58:59;;;;;;;10.35;7.70;;;28.40;47.70;;;;;;5084551;28;20056;-68
2021/06/09 12:01:35;;;;;;;8.52;6.72;;;28.20;47.20;;;;;;5088239;28;20055;-67
2021/06/09 12:04:22;;;;;;;9.63;6.40;;;28.00;47.60;;;;;;5086783;28;20119;-67
2021/06/09 12:06:53;;;;;;;8.43;7.63;;;28.20;48.10;;;;;;5083228;28;20027;-67
2021/06/09 12:09:20;;;;;;;10.85;8.68;;;28.30;46.60;;;;;;5082804;28;20103;-67
2021/06/09 12:11:56;;;;;;;7.60;6.47;;;28.40;46.20;;;;;;5075108;28;20101;-67
2021/06/09 12:14:26;;;;;;;8.63;7.07;;;28.40;47.50;;;;;;5089185;28;20024;-67
2021/06/09 12:16:56;;;;;;;8.50;7.60;;;28.40;46.40;;;;;;5092445;28;20024;-67
2021/06/09 12:19:29;;;;;;;8.65;7.63;;;28.40;46.50;;;;;;5075978;28;20027;-67
2021/06/09 12:22:02;;;;;;;9.85;8.63;;;28.20;46.40;;;;;;5069029;28;20498;-67
2021/06/09 12:24:28;;;;;;;9.15;8.20;;;28.10;46.80;;;;;;5065213;28;20032;-67
2021/06/09 12:27:09;;;;;;;12.60;9.35;;;27.80;47.30;;;;;;5089576;28;20094;-67
2021/06/09 12:29:37;;;;;;;11.75;10.55;;;27.90;47.20;;;;;;5093659;28;20020;-66
2021/06/09 12:32:27;;;;;;;10.68;9.60;;;27.80;46.70;;;;;;5093634;28;20016;-67
2021/06/09 12:35:10;;;;;;;10.73;8.88;;;27.80;47.30;;;;;;5093445;28;20020;-67
2021/06/09 12:37:44;;;;;;;9.70;8.75;;;27.90;47.40;;;;;;5092944;28;20028;-67
2021/06/09 12:40:20;;;;;;;11.02;9.93;;;28.00;47.90;;;;;;5092706;28;20403;-67
2021/06/09 12:42:59;;;;;;;11.75;10.50;;;28.00;47.20;;;;;;5075827;28;20020;-67
2021/06/09 12:45:27;;;;;;;11.48;9.77;;;27.80;46.90;;;;;;5093788;28;20030;-67
2021/06/09 12:47:53;;;;;;;12.30;11.00;;;27.60;47.60;;;;;;5087575;28;20024;-66
2021/06/09 12:50:26;;;;;;;14.68;12.88;;;27.60;47.50;;;;;;5090872;28;20016;-66